Nearby METAR Reports

 

YMER - Merimbula Arpt, Australia
Distance from station: SE 12km
Updated: 14/11/2022 15:52
NOT Current
Mostly cloudy
Mostly cloudy
 Wind from W
Wind: W 28 km/h, Gust: 48 km/h
Temperature: 24°C
Dew Point: 8°C
Humidity: 36%
Barometer: 996 hPa
Clouds: Mostly cloudy
Visibility: 10 km
Cloud details: Mostly cloudy 3505 m
2022/11/14 04:52 YMER 140452Z AUTO 28015G26KT 9999 // BKN115 24/08 Q0996
YCOM - Cooma Snowy Mtns, Australia
Distance from station: NW 96km
Updated: 16/11/2022 08:30
NOT Current
Mostly cloudy
Mostly cloudy
 Wind from SSW
Wind: SSW 17 km/h
Temperature: 3°C
Wind Chill: -1°C
Dew Point: 3°C
Humidity: 100%
Barometer: 1010 hPa
Clouds: Mostly cloudy
Visibility: 10 km
Cloud details: Partly cloudy 152 m
Mostly cloudy 305 m
Mostly cloudy 610 m
2022/11/15 21:30 YCOM 152130Z AUTO 21009KT 9999 // SCT005 BKN010 BKN020 03/03 Q1010
 
YSCB - Canberra (civ/Mi, Australia
Distance from station: NNW 182km
Updated: 16/04/2024 12:00
Clear
Clear
 Wind from NW
Wind: NW 6 km/h
Temperature: 19°C
Dew Point: 8°C
Humidity: 49%
Barometer: 1024 hPa
Clouds: Clear
Visibility: 10 km
2024/04/16 02:00 YSCB 160200Z AUTO 32003KT 9999 // NCD 19/08 Q1024 RF00.0/000.0
YSNW - Nowra (aus-Navy), Australia
Distance from station: NNE 219km
Updated: 16/11/2022 13:33
NOT Current
Light rain, Showers, Mostly cloudy
Light rain, Showers, Mostly cloudy
 Wind from S
Wind: S 28 km/h, Gust: 50 km/h
Temperature: 10°C
Wind Chill: 7°C
Dew Point: 8°C
Humidity: 88%
Barometer: 1010 hPa
Summary: Light rain, Showers
Clouds: Mostly cloudy
Visibility: 10 km
Cloud details: Partly cloudy 610 m
Mostly cloudy 1463 m
Mostly cloudy 1768 m
2022/11/16 02:33 YSNW 160233Z AUTO 17015G27KT 9999 -SHRA SCT020 BKN048 BKN058 10/08 Q1010
 
YMAY - Albury Airport, Australia
Distance from station: WNW 271km
Updated: 14/11/2022 17:09
NOT Current
Mostly cloudy
Mostly cloudy
 Wind from SW
Wind: SW 24 km/h
Temperature: 15°C
Dew Point: 15°C
Humidity: 100%
Barometer: 1004 hPa
Clouds: Mostly cloudy
Visibility: 8 km
Cloud details: Partly cloudy 762 m
Partly cloudy 1067 m
Mostly cloudy 1402 m
2022/11/14 06:09 YMAY 140609Z AUTO 23013KT 220V290 8000 // SCT025 SCT035 BKN046 15/15 Q1004 RETS
YSWG - Wagga Wagga(Cv/M, Australia
Distance from station: NW 283km
Updated: 13/11/2022 13:30
NOT Current
Thunderstorm
Thunderstorm
 Wind from varies
Wind: varies 0 km/h
Summary: Thunderstorm
2022/11/13 02:30 YSWG 130230Z AUTO /////KT //// TS ////// ///// Q////
 
YWGT - Wangaratta Arp, Australia
Distance from station: W 317km
Updated: 13/11/2022 17:17
NOT Current

 Wind from S
Wind: S 9 km/h
Temperature: 17°C
Dew Point: 16°C
Humidity: 94%
Barometer: 1000 hPa
2022/11/13 06:17 YWGT 130617Z AUTO 19005KT //// // ////// 17/16 Q1000 RETS
YSSY - Sydney Intl Airp, Australia
Distance from station: NNE 343km
Updated: 16/04/2024 12:00
Partly cloudy
Partly cloudy
 Wind from S
Wind: S 19 km/h
Temperature: 21°C
Dew Point: 17°C
Humidity: 78%
Barometer: 1023 hPa
Clouds: Partly cloudy
Visibility: 10 km
Cloud details: Partly cloudy 610 m
2024/04/16 02:00 YSSY 160200Z 17010KT 9999 SCT020 21/17 Q1023